Weather History for Farmington, MO

Change the Weather History Date:

Saturday, May 25, 2013

  Actual Average Record
Temperature  
Mean Temperature 58 °F -  
Max Temperature 73 °F 74 °F 89 °F (2006)
Min Temperature 42 °F 54 °F 42 °F (2013)
Degree Days  
Heating Degree Days 8    
Growing Degree Days 8 (Base 50)    
Moisture  
Dew Point 48 °F    
Average Humidity 66    
Maximum Humidity 93    
Minimum Humidity 47    
Precipitation  
Precipitation 0.00 in - - ()
Sea Level Pressure  
Sea Level Pressure 30.27 in    
Wind  
Wind Speed 4 mph (SSE)    
Max Wind Speed 14 mph    
Max Gust Speed 17 mph    
Visibility 10 miles    
Events      
Averages and records for this station are not official NWS values.
T = Trace of Precipitation, MM = Missing Value Source: NWS Daily Summary

Daily Weather History Graph

Daily Weather History Graph

Search for Another Location

Airport:

Trip Planner

Search our weather history database for the weather conditions in past years. The results will help you decide how hot, cold, wet, or windy it might be!

Date:

Astronomy

May. 25, 2013 Rise Set
Actual Time 5:44 AM CDT 8:13 PM CDT
Civil Twilight 5:14 AM CDT 8:43 PM CDT
Nautical Twilight 4:37 AM CDT 9:20 PM CDT
Astronomical Twilight 3:55 AM CDT 10:02 PM CDT
Moon 9:01 PM CDT (5/25) 6:11 AM CDT (5/25)
Length of Visible Light 15h 28m
Length of Day
14h 28m
Full, 100% of the Moon is Illuminated
May 25
Full
May 31
Last Quarter
Jun 8
New
Jun 16
First Quarter
Jun 23
Full

Hourly Weather History & Observations

Time (CDT) Temp. Windchill Dew Point Humidity Pressure Visibility Wind Dir Wind Speed Gust Speed Precip Events Conditions
12:15 AM 46.4 °F - 41.0 °F 81% 30.31 in 10.0 mi Calm Calm - N/A   Clear
12:35 AM 46.4 °F - 42.8 °F 87% 30.30 in 10.0 mi Calm Calm - N/A   Clear
12:55 AM 46.4 °F - 42.8 °F 87% 30.30 in 10.0 mi Calm Calm - N/A   Clear
1:15 AM 48.2 °F - 42.8 °F 82% 30.30 in 10.0 mi Calm Calm - N/A   Clear
1:35 AM 46.4 °F - 42.8 °F 87% 30.30 in 10.0 mi Calm Calm - N/A   Clear
1:55 AM 46.4 °F - 42.8 °F 87% 30.31 in 10.0 mi Calm Calm - N/A   Clear
2:15 AM 48.2 °F - 42.8 °F 82% 30.30 in 10.0 mi Calm Calm - N/A   Clear
2:35 AM 46.4 °F 45.2 °F 41.0 °F 81% 30.30 in 10.0 mi SE 3.5 mph - N/A   Clear
2:55 AM 44.6 °F - 41.0 °F 87% 30.30 in 10.0 mi Calm Calm - N/A   Clear
3:15 AM 44.6 °F - 41.0 °F 87% 30.29 in 10.0 mi Calm Calm - N/A   Clear
3:35 AM 44.6 °F - 41.0 °F 87% 30.29 in 10.0 mi Calm Calm - N/A   Clear
3:55 AM 44.6 °F 43.1 °F 39.2 °F 81% 30.28 in 10.0 mi South 3.5 mph - N/A   Clear
4:15 AM 44.6 °F 42.2 °F 39.2 °F 81% 30.27 in 10.0 mi South 4.6 mph - N/A   Clear
4:35 AM 46.4 °F 44.3 °F 39.2 °F 76% 30.28 in 10.0 mi South 4.6 mph - N/A   Clear
4:55 AM 42.8 °F - 39.2 °F 87% 30.31 in 10.0 mi Calm Calm - N/A   Clear
5:15 AM 44.6 °F - 39.2 °F 81% 30.30 in 10.0 mi Calm Calm - N/A   Clear
5:35 AM 44.6 °F - 39.2 °F 81% 30.30 in 10.0 mi Calm Calm - N/A   Clear
5:55 AM 42.8 °F - 41.0 °F 93% 30.30 in 10.0 mi Calm Calm - N/A   Clear
6:15 AM 46.4 °F - 41.0 °F 81% 30.31 in 10.0 mi Calm Calm - N/A   Clear
6:35 AM 46.4 °F - 42.8 °F 87% 30.33 in 10.0 mi Calm Calm - N/A   Clear
6:55 AM 48.2 °F - 44.6 °F 87% 30.34 in 10.0 mi NNE 5.8 mph - N/A   Clear
7:15 AM 50.0 °F - 44.6 °F 82% 30.34 in 10.0 mi East 3.5 mph - N/A   Clear
7:35 AM 51.8 °F - 44.6 °F 76% 30.35 in 10.0 mi Calm Calm - N/A   Clear
7:55 AM 51.8 °F - 46.4 °F 82% 30.34 in 10.0 mi Calm Calm - N/A   Clear
8:15 AM 53.6 °F - 46.4 °F 77% 30.35 in 10.0 mi SSW 3.5 mph - N/A   Clear
8:35 AM 55.4 °F - 46.4 °F 72% 30.35 in 10.0 mi SSE 5.8 mph - N/A   Clear
8:55 AM 57.2 °F - 48.2 °F 72% 30.35 in 10.0 mi SSE 8.1 mph - N/A   Clear
9:15 AM 59.0 °F - 48.2 °F 67% 30.34 in 10.0 mi SSE 8.1 mph - N/A   Clear
9:35 AM 60.8 °F - 48.2 °F 63% 30.34 in 10.0 mi SSE 9.2 mph - N/A   Clear
9:55 AM 62.6 °F - 48.2 °F 59% 30.33 in 10.0 mi SSE 10.4 mph - N/A   Scattered Clouds
10:15 AM 62.6 °F - 48.2 °F 59% 30.32 in 10.0 mi SSE 9.2 mph - N/A   Partly Cloudy
10:35 AM 64.4 °F - 48.2 °F 56% 30.32 in 10.0 mi South 10.4 mph - N/A   Clear
10:55 AM 66.2 °F - 48.2 °F 52% 30.32 in 10.0 mi South 6.9 mph - N/A   Clear
11:15 AM 66.2 °F - 48.2 °F 52% 30.33 in 10.0 mi South 8.1 mph - N/A   Clear
11:35 AM 66.2 °F - 48.2 °F 52% 30.33 in 10.0 mi South 8.1 mph - N/A   Clear
11:55 AM 66.2 °F - 48.2 °F 52% 30.32 in 10.0 mi South 10.4 mph - N/A   Clear
12:15 PM 68.0 °F - 48.2 °F 49% 30.31 in 10.0 mi SE 9.2 mph - N/A   Clear
12:35 PM 69.8 °F - 51.8 °F 53% 30.31 in 10.0 mi SSE 8.1 mph - N/A   Clear
12:55 PM 69.8 °F - 51.8 °F 53% 30.32 in 10.0 mi SSE 4.6 mph - N/A   Clear
1:15 PM 69.8 °F - 50.0 °F 49% 30.31 in 10.0 mi SSE 8.1 mph - N/A   Clear
1:35 PM 71.6 °F - 51.8 °F 50% 30.29 in 10.0 mi SE 10.4 mph 16.1 mph N/A   Clear
1:55 PM 71.6 °F - 51.8 °F 50% 30.28 in 10.0 mi SE 9.2 mph - N/A   Clear
2:15 PM 73.4 °F - 51.8 °F 47% 30.27 in 10.0 mi SSE 6.9 mph - N/A   Clear
2:35 PM 73.4 °F - 53.6 °F 50% 30.25 in 10.0 mi SSE 11.5 mph - N/A   Partly Cloudy
2:55 PM 73.4 °F - 53.6 °F 50% 30.26 in 10.0 mi SE 6.9 mph - N/A   Clear
3:15 PM 73.4 °F - 53.6 °F 50% 30.26 in 10.0 mi ESE 6.9 mph - N/A   Scattered Clouds
3:35 PM 71.6 °F - 51.8 °F 50% 30.26 in 10.0 mi East 8.1 mph - N/A   Overcast
3:55 PM 71.6 °F - 51.8 °F 50% 30.25 in 10.0 mi East 6.9 mph - N/A   Overcast
4:15 PM 71.6 °F - 51.8 °F 50% 30.24 in 10.0 mi SE 8.1 mph - N/A   Mostly Cloudy
4:35 PM 71.6 °F - 51.8 °F 50% 30.23 in 10.0 mi SE 9.2 mph - N/A   Mostly Cloudy
4:55 PM 73.4 °F - 53.6 °F 50% 30.21 in 10.0 mi SSE 11.5 mph - N/A   Mostly Cloudy
5:15 PM 73.4 °F - 53.6 °F 50% 30.22 in 10.0 mi SSE 13.8 mph 17.3 mph N/A   Partly Cloudy
5:35 PM 73.4 °F - 53.6 °F 50% 30.21 in 10.0 mi South 12.7 mph 16.1 mph N/A   Scattered Clouds
5:55 PM 73.4 °F - 53.6 °F 50% 30.19 in 10.0 mi SSE 12.7 mph 17.3 mph N/A   Partly Cloudy
6:15 PM 71.6 °F - 53.6 °F 53% 30.18 in 10.0 mi SSE 13.8 mph 17.3 mph N/A   Clear
6:35 PM 69.8 °F - 51.8 °F 53% 30.18 in 10.0 mi SSE 12.7 mph 17.3 mph N/A   Clear
6:55 PM 69.8 °F - 51.8 °F 53% 30.18 in 10.0 mi South 9.2 mph - N/A   Partly Cloudy
7:15 PM 69.8 °F - 53.6 °F 56% 30.18 in 10.0 mi South 5.8 mph - N/A   Mostly Cloudy
7:35 PM 69.8 °F - 51.8 °F 53% 30.18 in 10.0 mi South 5.8 mph - N/A   Scattered Clouds
7:55 PM 68.0 °F - 51.8 °F 56% 30.18 in 10.0 mi South 8.1 mph - N/A   Scattered Clouds
8:15 PM 66.2 °F - 51.8 °F 60% 30.18 in 10.0 mi South 5.8 mph - N/A   Scattered Clouds
8:35 PM 66.2 °F - 51.8 °F 60% 30.18 in 10.0 mi South 3.5 mph - N/A   Overcast
8:55 PM 66.2 °F - 51.8 °F 60% 30.18 in 10.0 mi South 4.6 mph - N/A   Mostly Cloudy
9:15 PM 64.4 °F - 51.8 °F 64% 30.18 in 10.0 mi South 4.6 mph - N/A   Clear
9:35 PM 64.4 °F - 51.8 °F 64% 30.19 in 10.0 mi South 4.6 mph - N/A   Clear
9:55 PM 62.6 °F - 51.8 °F 68% 30.20 in 10.0 mi South 5.8 mph - N/A   Clear
10:15 PM 62.6 °F - 51.8 °F 68% 30.20 in 10.0 mi SSW 5.8 mph - N/A   Clear
10:35 PM 62.6 °F - 51.8 °F 68% 30.20 in 10.0 mi SSW 4.6 mph - N/A   Clear
10:55 PM 62.6 °F - 51.8 °F 68% 30.19 in 10.0 mi SSW 4.6 mph - N/A   Clear
11:15 PM 60.8 °F - 51.8 °F 72% 30.19 in 10.0 mi SSW 4.6 mph - N/A   Clear
11:35 PM 60.8 °F - 51.8 °F 72% 30.19 in 10.0 mi Calm Calm - N/A   Clear
11:55 PM 60.8 °F - 51.8 °F 72% 30.19 in 10.0 mi South 8.1 mph - N/A   Clear